createdAt,value
2023-03-11T00:00:47.436Z,13.96
2023-03-11T00:03:17.681Z,13.81
2023-03-11T00:05:46.797Z,14.00
2023-03-11T00:08:17.107Z,14.02
2023-03-11T00:10:46.307Z,14.03
2023-03-11T00:13:16.235Z,14.07
2023-03-11T00:15:47.532Z,14.07
2023-03-11T00:18:14.781Z,14.09
2023-03-11T00:20:44.392Z,13.90
2023-03-11T00:23:13.476Z,14.06
2023-03-11T00:25:40.674Z,14.14
2023-03-11T00:28:08.132Z,14.06
2023-03-11T00:30:35.332Z,14.11
2023-03-11T00:33:02.792Z,14.05
2023-03-11T00:35:34.347Z,14.19
2023-03-11T00:38:05.117Z,14.06
2023-03-11T00:40:35.190Z,14.14
2023-03-11T00:43:03.545Z,14.12
2023-03-11T00:45:31.839Z,14.06
2023-03-11T00:47:58.980Z,14.09
2023-03-11T00:50:30.038Z,14.13
2023-03-11T00:52:57.678Z,14.10
2023-03-11T00:55:31.835Z,14.11
2023-03-11T00:58:04.143Z,13.97
2023-03-11T01:00:40.761Z,14.06
2023-03-11T01:03:08.366Z,14.06
2023-03-11T01:05:35.872Z,14.03
2023-03-11T01:08:04.065Z,14.09
2023-03-11T01:10:33.745Z,14.01
2023-03-11T01:13:01.696Z,14.06
2023-03-11T01:15:34.250Z,14.07
2023-03-11T01:18:02.463Z,13.97
2023-03-11T01:20:30.539Z,13.99
2023-03-11T01:22:58.047Z,13.97
2023-03-11T01:25:25.786Z,14.04
2023-03-11T01:27:52.999Z,13.99
2023-03-11T01:30:22.816Z,14.02
2023-03-11T01:32:52.519Z,14.04
2023-03-11T01:35:22.160Z,13.93
2023-03-11T01:37:49.930Z,13.98
2023-03-11T01:40:24.846Z,13.98
2023-03-11T01:42:52.080Z,14.02
2023-03-11T01:45:43.523Z,14.03
2023-03-11T01:48:12.516Z,14.06
2023-03-11T01:50:44.328Z,14.00
2023-03-11T01:53:14.037Z,14.04
2023-03-11T01:55:43.048Z,14.03
2023-03-11T01:58:16.438Z,13.96
2023-03-11T02:00:44.238Z,14.04
2023-03-11T02:03:31.870Z,14.04
2023-03-11T02:06:02.363Z,13.87
2023-03-11T02:08:34.272Z,14.03
2023-03-11T02:11:06.750Z,13.95
2023-03-11T02:13:35.539Z,13.96
2023-03-11T02:16:04.075Z,13.90
2023-03-11T02:18:32.007Z,13.98
2023-03-11T02:21:24.946Z,14.00
2023-03-11T02:24:10.171Z,13.88
2023-03-11T02:26:49.955Z,14.00
2023-03-11T02:29:20.382Z,13.88
2023-03-11T02:31:49.998Z,13.84
2023-03-11T02:34:26.499Z,13.98
2023-03-11T02:36:54.039Z,13.86
2023-03-11T02:39:40.507Z,13.96
2023-03-11T02:42:24.388Z,13.90
2023-03-11T02:45:27.525Z,13.87
2023-03-11T02:48:16.941Z,13.89
2023-03-11T02:51:01.873Z,13.92
2023-03-11T02:53:35.999Z,13.91
2023-03-11T02:56:03.471Z,13.97
2023-03-11T02:58:30.648Z,13.90
2023-03-11T03:00:58.063Z,13.96
2023-03-11T03:03:25.765Z,13.95
2023-03-11T03:05:53.232Z,13.98
2023-03-11T03:08:20.742Z,13.89
2023-03-11T03:10:48.014Z,13.86
2023-03-11T03:13:15.320Z,13.93
2023-03-11T03:15:42.574Z,13.95
2023-03-11T03:18:09.887Z,13.93
2023-03-11T03:20:37.177Z,13.95
2023-03-11T03:23:04.928Z,13.93
2023-03-11T03:25:33.081Z,13.87
2023-03-11T03:28:04.984Z,13.93
2023-03-11T03:30:35.287Z,13.91
2023-03-11T03:33:02.591Z,13.82
2023-03-11T03:35:31.010Z,13.93
2023-03-11T03:38:10.350Z,13.91
2023-03-11T03:40:39.094Z,13.88
2023-03-11T03:43:07.465Z,13.83
2023-03-11T03:45:36.355Z,13.90
2023-03-11T03:48:04.212Z,13.87
2023-03-11T03:50:34.477Z,13.77
2023-03-11T03:53:01.797Z,13.84
2023-03-11T03:55:29.224Z,13.79
2023-03-11T03:57:58.070Z,13.72
2023-03-11T04:00:29.281Z,13.84
2023-03-11T04:03:01.071Z,13.80
2023-03-11T04:05:37.223Z,13.74
2023-03-11T04:08:04.627Z,13.84
2023-03-11T04:10:31.805Z,13.82
2023-03-11T04:12:59.293Z,13.77
2023-03-11T04:15:26.600Z,13.75
2023-03-11T04:17:53.901Z,13.76
2023-03-11T04:20:21.238Z,13.78
2023-03-11T04:22:51.184Z,13.75
2023-03-11T04:25:20.291Z,13.60
2023-03-11T04:27:50.245Z,13.69
2023-03-11T04:30:18.184Z,13.80
2023-03-11T04:32:47.462Z,13.83
2023-03-11T04:35:14.971Z,13.81
2023-03-11T04:37:42.258Z,13.75
2023-03-11T04:40:11.366Z,13.80
2023-03-11T04:42:39.407Z,13.78
2023-03-11T04:45:08.639Z,13.80
2023-03-11T04:47:36.232Z,13.76
2023-03-11T04:50:05.577Z,13.77
2023-03-11T04:52:33.355Z,13.73
2023-03-11T04:55:01.609Z,13.75
2023-03-11T04:57:30.367Z,13.76
2023-03-11T04:59:59.816Z,13.73
2023-03-11T05:02:28.022Z,13.73
2023-03-11T05:05:00.444Z,13.72
2023-03-11T05:07:28.805Z,13.75
2023-03-11T05:09:57.303Z,13.76
2023-03-11T05:12:25.198Z,13.75
2023-03-11T05:14:54.461Z,13.73
2023-03-11T05:17:23.236Z,13.74
2023-03-11T05:19:54.191Z,13.77
2023-03-11T05:22:31.720Z,13.79
2023-03-11T05:25:10.937Z,13.77
2023-03-11T05:27:39.702Z,13.80
2023-03-11T05:30:10.021Z,13.70
2023-03-11T05:32:43.141Z,13.80
2023-03-11T05:35:11.325Z,13.79
2023-03-11T05:37:39.517Z,13.78
2023-03-11T05:40:08.745Z,13.78
2023-03-11T05:42:38.358Z,13.82
2023-03-11T05:45:08.545Z,13.68
2023-03-11T05:47:38.618Z,13.75
2023-03-11T05:50:07.751Z,13.62
2023-03-11T05:52:35.766Z,13.83
2023-03-11T05:55:35.776Z,13.71
2023-03-11T05:58:23.439Z,13.80
2023-03-11T06:00:57.825Z,13.73
2023-03-11T06:03:39.328Z,13.80
2023-03-11T06:06:33.113Z,13.73
2023-03-11T06:09:23.103Z,13.75
2023-03-11T06:11:54.879Z,13.76
2023-03-11T06:14:36.751Z,13.67
2023-03-11T06:17:08.830Z,13.62
2023-03-11T06:19:44.268Z,13.70
2023-03-11T06:22:21.527Z,13.72
2023-03-11T06:25:02.406Z,13.70
2023-03-11T06:27:32.813Z,13.70
2023-03-11T06:30:00.711Z,13.68
2023-03-11T06:32:30.670Z,13.65
2023-03-11T06:34:58.126Z,13.66
2023-03-11T06:37:25.934Z,13.66
2023-03-11T06:39:53.877Z,13.50
2023-03-11T06:42:26.160Z,13.61
2023-03-11T06:44:57.804Z,13.64
2023-03-11T06:47:25.862Z,13.60
2023-03-11T06:49:53.428Z,13.53
2023-03-11T06:52:20.760Z,13.50
2023-03-11T06:54:47.975Z,13.61
2023-03-11T06:57:19.241Z,13.37
2023-03-11T06:59:49.864Z,13.62
2023-03-11T07:02:18.720Z,13.49
2023-03-11T07:04:49.811Z,13.48
2023-03-11T07:07:18.833Z,13.55
2023-03-11T07:09:46.158Z,13.54
2023-03-11T07:12:15.251Z,13.59
2023-03-11T07:14:42.755Z,13.56
2023-03-11T07:17:10.142Z,13.54
2023-03-11T07:19:44.010Z,13.54
2023-03-11T07:22:11.848Z,13.49
2023-03-11T07:24:40.591Z,13.48
2023-03-11T07:27:08.205Z,13.49
2023-03-11T07:29:35.440Z,13.37
2023-03-11T07:32:02.750Z,13.43
2023-03-11T07:34:37.092Z,13.42
2023-03-11T07:37:04.740Z,13.41
2023-03-11T07:39:31.882Z,13.39
2023-03-11T07:41:59.078Z,13.39
2023-03-11T07:44:34.526Z,13.39
2023-03-11T07:47:06.329Z,13.31
2023-03-11T07:49:34.835Z,13.41
2023-03-11T07:52:02.132Z,13.38
2023-03-11T07:54:29.298Z,13.42
2023-03-11T07:56:56.548Z,13.34
2023-03-11T07:59:24.022Z,13.42
2023-03-11T08:01:51.960Z,13.43
2023-03-11T08:04:19.206Z,13.38
2023-03-11T08:06:48.977Z,13.39
2023-03-11T08:09:16.463Z,13.42
2023-03-11T08:11:43.913Z,13.36
2023-03-11T08:14:11.210Z,13.33
2023-03-11T08:16:40.754Z,13.29
2023-03-11T08:19:08.197Z,13.42
2023-03-11T08:21:35.613Z,13.46
2023-03-11T08:24:05.547Z,13.37
2023-03-11T08:26:34.508Z,13.46
2023-03-11T08:29:01.769Z,13.27
2023-03-11T08:31:32.073Z,13.29
2023-03-11T08:34:04.222Z,13.26
2023-03-11T08:36:32.159Z,13.42
2023-03-11T08:39:01.844Z,13.38
2023-03-11T08:41:30.952Z,13.43
2023-03-11T08:43:58.222Z,13.46
2023-03-11T08:46:32.359Z,13.48
2023-03-11T08:49:01.391Z,13.45
2023-03-11T08:51:30.467Z,13.31
2023-03-11T08:53:58.247Z,13.42
2023-03-11T08:56:26.307Z,13.43
2023-03-11T08:58:54.229Z,13.43
2023-03-11T09:01:23.326Z,13.43
2023-03-11T09:03:54.807Z,13.54
2023-03-11T09:06:25.425Z,13.47
2023-03-11T09:12:31.386Z,13.44
2023-03-11T09:15:41.272Z,13.51
2023-03-11T09:18:16.641Z,13.54
2023-03-11T09:20:46.162Z,13.56
2023-03-11T09:23:17.159Z,13.58
2023-03-11T09:25:44.485Z,13.53
2023-03-11T09:28:11.743Z,13.54
2023-03-11T09:30:39.243Z,13.58
2023-03-11T09:33:06.870Z,13.53
2023-03-11T09:35:34.368Z,13.55
2023-03-11T09:38:01.704Z,13.54
2023-03-11T09:40:46.920Z,13.40
2023-03-11T09:43:21.105Z,13.43
2023-03-11T09:46:24.700Z,13.55
2023-03-11T09:49:25.695Z,13.59
2023-03-11T09:52:30.940Z,13.47
2023-03-11T09:55:01.040Z,13.49
2023-03-11T09:57:34.948Z,13.35
2023-03-11T10:00:11.913Z,13.36
2023-03-11T10:02:43.960Z,13.46
2023-03-11T10:05:23.150Z,13.39
2023-03-11T10:08:17.406Z,13.51
2023-03-11T10:10:59.577Z,13.44
2023-03-11T10:13:54.661Z,13.33
2023-03-11T10:17:08.217Z,13.42
2023-03-11T10:20:25.052Z,13.54
2023-03-11T10:23:07.959Z,13.52
2023-03-11T10:25:42.477Z,13.57
2023-03-11T10:28:17.017Z,13.61
2023-03-11T10:30:56.427Z,13.49
2023-03-11T10:33:28.651Z,13.51
2023-03-11T10:36:05.393Z,13.61
2023-03-11T10:38:57.137Z,13.59
2023-03-11T10:41:31.891Z,13.51
2023-03-11T10:44:07.117Z,13.45
2023-03-11T10:46:34.655Z,13.71
2023-03-11T10:49:20.056Z,13.63
2023-03-11T10:52:00.399Z,13.69
2023-03-11T10:54:44.213Z,13.77
2023-03-11T10:57:31.393Z,13.78
2023-03-11T11:00:02.050Z,13.77
2023-03-11T11:02:38.424Z,13.67
2023-03-11T11:05:21.371Z,13.91
2023-03-11T11:07:54.077Z,13.99
2023-03-11T11:10:26.760Z,13.93
2023-03-11T11:12:56.150Z,13.98
2023-03-11T11:15:29.626Z,13.94
2023-03-11T11:18:03.887Z,13.83
2023-03-11T11:20:32.906Z,13.94
2023-03-11T11:23:03.681Z,13.97
2023-03-11T11:25:36.854Z,13.83
2023-03-11T11:28:19.274Z,13.72
2023-03-11T11:30:59.126Z,13.90
2023-03-11T11:33:32.508Z,13.92
2023-03-11T11:36:03.129Z,13.95
2023-03-11T11:38:32.815Z,14.02
2023-03-11T11:41:03.798Z,14.03
2023-03-11T11:43:48.382Z,14.06
2023-03-11T11:46:40.631Z,14.07
2023-03-11T11:49:23.954Z,14.12
2023-03-11T11:52:34.643Z,13.98
2023-03-11T11:55:29.312Z,14.07
2023-03-11T11:57:57.210Z,14.06
2023-03-11T12:00:34.782Z,14.03
2023-03-11T12:03:05.093Z,14.22
2023-03-11T12:05:36.031Z,14.21
2023-03-11T12:08:40.301Z,14.27
2023-03-11T12:11:15.015Z,14.28
2023-03-11T12:13:42.223Z,14.26
2023-03-11T12:16:46.625Z,14.22
2023-03-11T12:19:25.627Z,14.22
2023-03-11T12:22:11.632Z,14.10
2023-03-11T12:24:53.320Z,14.06
2023-03-11T12:27:23.603Z,14.11
2023-03-11T12:29:55.949Z,14.16
2023-03-11T12:32:36.513Z,13.98
2023-03-11T12:35:19.039Z,14.04
2023-03-11T12:37:46.648Z,14.00
2023-03-11T12:40:59.161Z,14.05
2023-03-11T12:43:34.807Z,14.00
2023-03-11T12:46:03.570Z,13.92
2023-03-11T12:48:30.689Z,14.05
2023-03-11T12:50:59.605Z,14.16
2023-03-11T12:53:43.754Z,14.10
2023-03-11T12:56:35.504Z,14.17
2023-03-11T12:59:17.706Z,14.22
2023-03-11T13:01:56.929Z,14.17
2023-03-11T13:04:37.019Z,14.17
2023-03-11T13:07:39.419Z,14.20
2023-03-11T13:10:15.062Z,14.18
2023-03-11T13:12:48.453Z,14.07
2023-03-11T13:15:19.020Z,14.04
2023-03-11T13:18:02.882Z,14.01
2023-03-11T13:20:39.211Z,14.09
2023-03-11T13:23:12.558Z,14.16
2023-03-11T13:25:50.041Z,14.10
2023-03-11T13:28:53.072Z,14.10
2023-03-11T13:31:59.312Z,14.14
2023-03-11T13:34:42.619Z,14.14
2023-03-11T13:37:12.678Z,14.19
2023-03-11T13:39:52.501Z,14.20
2023-03-11T13:42:31.027Z,13.99
2023-03-11T13:45:00.242Z,13.96
2023-03-11T13:47:29.358Z,14.12
2023-03-11T13:50:13.406Z,14.14
2023-03-11T13:53:02.784Z,14.20
2023-03-11T13:55:45.495Z,14.15
2023-03-11T13:58:20.641Z,14.17
2023-03-11T14:00:51.329Z,14.15
2023-03-11T14:03:22.409Z,14.17
2023-03-11T14:06:03.407Z,14.31
2023-03-11T14:08:38.448Z,14.38
2023-03-11T14:11:08.647Z,14.24
2023-03-11T14:13:44.465Z,14.13
2023-03-11T14:16:33.824Z,14.15
2023-03-11T14:19:09.602Z,14.28
2023-03-11T14:21:36.984Z,14.12
2023-03-11T14:24:04.674Z,14.17
2023-03-11T14:26:35.373Z,14.23
2023-03-11T14:29:09.243Z,14.04
2023-03-11T14:31:39.614Z,14.04
2023-03-11T14:34:24.426Z,14.28
2023-03-11T14:36:55.512Z,14.32
2023-03-11T14:39:28.905Z,14.24
2023-03-11T14:42:03.331Z,14.14
2023-03-11T14:44:34.678Z,14.14
2023-03-11T14:47:33.274Z,14.10
2023-03-11T14:50:01.360Z,14.02
2023-03-11T14:52:42.130Z,14.05
2023-03-11T14:55:17.642Z,14.10
2023-03-11T14:58:14.430Z,14.03
2023-03-11T15:00:49.718Z,14.16
2023-03-11T15:03:26.228Z,13.99
2023-03-11T15:06:03.894Z,13.99
2023-03-11T15:08:37.881Z,13.87
2023-03-11T15:11:09.512Z,13.98
2023-03-11T15:13:39.608Z,14.02
2023-03-11T15:16:22.125Z,14.02
2023-03-11T15:18:49.536Z,14.03
2023-03-11T15:21:19.197Z,13.94
2023-03-11T15:23:49.560Z,13.99
2023-03-11T15:26:28.136Z,13.87
2023-03-11T15:29:06.859Z,13.86
2023-03-11T15:31:38.126Z,13.79
2023-03-11T15:34:12.341Z,13.51
2023-03-11T15:36:44.373Z,13.63
2023-03-11T15:39:13.968Z,13.80
2023-03-11T15:41:43.065Z,13.75
2023-03-11T15:44:45.117Z,13.61
2023-03-11T15:47:21.544Z,13.66
2023-03-11T15:49:51.273Z,13.76
2023-03-11T15:52:22.861Z,13.72
2023-03-11T15:54:55.733Z,13.81
2023-03-11T15:57:29.557Z,13.77
2023-03-11T15:59:59.211Z,13.87
2023-03-11T16:02:29.045Z,13.73
2023-03-11T16:04:57.388Z,13.91
2023-03-11T16:07:38.634Z,13.64
2023-03-11T16:10:08.552Z,13.75
2023-03-11T16:12:35.745Z,13.63
2023-03-11T16:15:03.007Z,13.64
2023-03-11T16:17:42.984Z,13.69
2023-03-11T16:20:16.071Z,13.68
2023-03-11T16:22:43.491Z,13.60
2023-03-11T16:25:22.022Z,13.59
2023-03-11T16:27:51.921Z,13.55
2023-03-11T16:30:20.195Z,13.60
2023-03-11T16:32:47.600Z,13.59
2023-03-11T16:35:15.435Z,13.62
2023-03-11T16:37:43.651Z,13.63
2023-03-11T16:40:20.666Z,13.67
2023-03-11T16:42:48.818Z,13.63
2023-03-11T16:45:17.640Z,13.59
2023-03-11T16:47:44.898Z,13.60
2023-03-11T16:50:12.646Z,13.52
2023-03-11T16:52:40.071Z,13.61
2023-03-11T16:55:08.132Z,13.60
2023-03-11T16:57:35.363Z,13.57
2023-03-11T17:00:04.760Z,13.58
2023-03-11T17:02:32.144Z,13.63
2023-03-11T17:04:59.490Z,13.53
2023-03-11T17:07:27.199Z,13.43
2023-03-11T17:09:54.561Z,13.42
2023-03-11T17:12:23.420Z,13.42
2023-03-11T17:14:51.190Z,13.46
2023-03-11T17:17:19.558Z,13.38
2023-03-11T17:19:47.379Z,13.41
2023-03-11T17:22:15.083Z,13.39
2023-03-11T17:24:42.489Z,13.29
2023-03-11T17:27:09.926Z,13.40
2023-03-11T17:29:37.221Z,13.36
2023-03-11T17:32:06.764Z,13.38
2023-03-11T17:34:34.009Z,13.33
2023-03-11T17:37:01.291Z,13.35
2023-03-11T17:39:28.511Z,13.34
2023-03-11T17:41:55.802Z,13.33
2023-03-11T17:44:23.112Z,13.29
2023-03-11T17:46:50.259Z,13.21
2023-03-11T17:49:19.251Z,13.25
2023-03-11T17:51:46.916Z,13.06
2023-03-11T17:54:14.121Z,13.19
2023-03-11T17:56:41.444Z,13.16
2023-03-11T17:59:08.696Z,13.12
2023-03-11T18:01:35.949Z,13.08
2023-03-11T18:04:03.309Z,13.10
2023-03-11T18:06:31.259Z,12.94
2023-03-11T18:08:58.571Z,13.01
2023-03-11T18:11:27.969Z,13.01
2023-03-11T18:13:55.318Z,12.90
2023-03-11T18:16:32.331Z,12.99
2023-03-11T18:18:59.627Z,12.88
2023-03-11T18:21:29.382Z,12.98
2023-03-11T18:23:58.384Z,13.01
2023-03-11T18:26:33.696Z,12.94
2023-03-11T18:29:03.110Z,13.01
2023-03-11T18:31:31.717Z,12.86
2023-03-11T18:34:03.019Z,12.98
2023-03-11T18:36:38.027Z,13.01
2023-03-11T18:39:06.607Z,12.92
2023-03-11T18:41:36.249Z,13.07
2023-03-11T18:44:04.757Z,12.99
2023-03-11T18:46:33.762Z,12.98
2023-03-11T18:49:06.296Z,12.89
2023-03-11T18:51:34.632Z,12.94
2023-03-11T18:54:03.468Z,13.01
2023-03-11T18:56:34.270Z,12.90
2023-03-11T18:59:01.711Z,12.99
2023-03-11T19:01:29.756Z,12.93
2023-03-11T19:03:59.139Z,12.92
2023-03-11T19:06:27.997Z,12.89
2023-03-11T19:08:55.870Z,12.91
2023-03-11T19:11:24.069Z,12.88
2023-03-11T19:13:52.053Z,12.83
2023-03-11T19:16:22.485Z,12.81
2023-03-11T19:18:50.415Z,12.81
2023-03-11T19:21:18.323Z,12.80
2023-03-11T19:23:46.245Z,12.77
2023-03-11T19:26:14.079Z,12.79
2023-03-11T19:28:42.255Z,12.69
2023-03-11T19:31:09.536Z,12.76
2023-03-11T19:33:36.923Z,12.79
2023-03-11T19:36:06.918Z,12.75
2023-03-11T19:38:34.576Z,12.74
2023-03-11T19:41:06.576Z,12.73
2023-03-11T19:43:35.846Z,12.61
2023-03-11T19:46:07.723Z,12.75
2023-03-11T19:48:35.376Z,12.69
2023-03-11T19:51:03.125Z,12.73
2023-03-11T19:53:30.306Z,12.70
2023-03-11T19:55:58.232Z,12.69
2023-03-11T19:58:30.419Z,12.70
2023-03-11T20:01:02.250Z,12.66
2023-03-11T20:03:30.487Z,12.67
2023-03-11T20:06:05.119Z,12.68
2023-03-11T20:08:36.889Z,12.61
2023-03-11T20:11:06.054Z,12.67
2023-03-11T20:13:39.229Z,12.63
2023-03-11T20:16:10.514Z,12.68
2023-03-11T20:18:38.057Z,12.56
2023-03-11T20:21:10.174Z,12.61
2023-03-11T20:23:38.220Z,12.50
2023-03-11T20:26:11.851Z,12.62
2023-03-11T20:28:39.279Z,12.62
2023-03-11T20:31:32.855Z,12.63
2023-03-11T20:34:00.319Z,12.46
2023-03-11T20:36:30.882Z,12.62
2023-03-11T20:38:58.188Z,12.55
2023-03-11T20:41:27.014Z,12.69
2023-03-11T20:43:56.154Z,12.64
2023-03-11T20:46:24.138Z,12.56
2023-03-11T20:48:51.386Z,12.63
2023-03-11T20:51:20.977Z,12.50
2023-03-11T20:53:49.258Z,12.62
2023-03-11T20:56:19.664Z,12.45
2023-03-11T20:58:48.984Z,12.50
2023-03-11T21:01:22.648Z,12.53
2023-03-11T21:03:50.242Z,12.54
2023-03-11T21:06:23.321Z,12.55
2023-03-11T21:08:53.064Z,12.53
2023-03-11T21:11:20.284Z,12.44
2023-03-11T21:13:47.687Z,12.46
2023-03-11T21:16:15.097Z,12.44
2023-03-11T21:18:44.425Z,12.40
2023-03-11T21:21:13.571Z,12.37
2023-03-11T21:23:42.246Z,12.39
2023-03-11T21:26:12.724Z,12.34
2023-03-11T21:28:40.694Z,12.37
2023-03-11T21:31:11.251Z,12.35
2023-03-11T21:33:40.891Z,12.37
2023-03-11T21:36:10.501Z,12.45
2023-03-11T21:38:40.285Z,12.36
2023-03-11T21:41:10.932Z,12.39
2023-03-11T21:43:39.989Z,12.36
2023-03-11T21:46:08.680Z,12.38
2023-03-11T21:48:36.084Z,12.36
2023-03-11T21:51:04.147Z,12.31
2023-03-11T21:53:32.146Z,12.39
2023-03-11T21:56:00.036Z,12.36
2023-03-11T21:58:28.132Z,12.39
2023-03-11T22:00:55.776Z,12.36
2023-03-11T22:03:23.549Z,12.35
2023-03-11T22:05:57.057Z,12.34
2023-03-11T22:08:24.730Z,12.35
2023-03-11T22:10:52.419Z,12.32
2023-03-11T22:13:21.500Z,12.38
2023-03-11T22:15:49.403Z,12.34
2023-03-11T22:18:16.815Z,12.33
2023-03-11T22:20:44.377Z,12.24
2023-03-11T22:23:11.635Z,12.38
2023-03-11T22:25:38.947Z,12.35
2023-03-11T22:28:06.433Z,12.32
2023-03-11T22:30:33.927Z,12.27
2023-03-11T22:33:01.247Z,12.30
2023-03-11T22:35:28.452Z,12.34
2023-03-11T22:37:56.027Z,12.31
2023-03-11T22:40:23.293Z,12.32
2023-03-11T22:42:50.502Z,12.29
2023-03-11T22:45:18.089Z,12.20
2023-03-11T22:47:45.729Z,12.23
2023-03-11T22:50:12.876Z,12.30
2023-03-11T22:52:40.091Z,12.29
2023-03-11T22:55:07.425Z,12.15
2023-03-11T22:57:38.991Z,12.29
2023-03-11T23:00:17.485Z,12.26
2023-03-11T23:02:46.344Z,12.18
2023-03-11T23:05:15.063Z,12.21
2023-03-11T23:07:43.110Z,12.19
2023-03-11T23:10:13.507Z,12.27
2023-03-11T23:12:41.679Z,12.22
2023-03-11T23:15:13.390Z,12.28
2023-03-11T23:17:41.261Z,12.28
2023-03-11T23:20:12.079Z,12.17
2023-03-11T23:22:40.784Z,12.28
2023-03-11T23:25:10.894Z,12.24
2023-03-11T23:27:38.227Z,12.24
2023-03-11T23:30:06.644Z,12.32
2023-03-11T23:32:34.467Z,12.37
2023-03-11T23:35:01.763Z,12.26
2023-03-11T23:37:29.482Z,12.28
2023-03-11T23:39:57.623Z,12.30
2023-03-11T23:42:26.345Z,12.31
2023-03-11T23:44:54.774Z,12.36
2023-03-11T23:47:21.911Z,12.32
2023-03-11T23:49:49.138Z,12.31
2023-03-11T23:52:16.459Z,12.34
2023-03-11T23:54:43.594Z,12.23
2023-03-11T23:57:10.866Z,12.29
2023-03-11T23:59:38.119Z,12.38
